Terminal Aerodrome Forecast
Issued by NWS Lake Charles, LA

Home | Current Version | Previous Version | Text Only | Print | Product List | Glossary On
Versions: 1 2 3 4 5 6 7 8 9 10 11 12 13 14 15 16 17 18 19 20 21
000
FTUS44 KLCH 232300
TAFBPT
TAF
KBPT 232327Z 2400/2424 17008KT P6SM SKC
     FM240500 17007KT 4SM BR SCT007
     FM240800 16006KT 2SM BR OVC007
     FM241500 17008KT P6SM BKN025
     FM241800 18013G20KT P6SM SCT035=

USA.gov is the U.S. government's official web portal to all federal, state and local government web resources and services.